Baqubah, Iraq
Current Conditions -  °F | °C
As of 12:30 PM on Wednesday 22 Oct 2014 (Local Time) from ORBI Reporting Station
Clear Clear  
Wind Chill: 77°   Ceiling: Unl
Heat Index: 78°   Visibility: 6mi
Dew Point: 50°   Wind: 7mph
Humidity: 39%   Direction: 180°S
Pressure: 30.12"   Gusts: NA
Location:  33.75°N, 44.64°E
Report Text: ORBI 220930Z 18006KT 140V250 CAVOK 25/10 Q1020
Loading
Personal Weather Stations






























Interactive Weather Map
Tropical Storm Tracking
New forecast layout! Learn more

10-Day Weather Forecast

Advertisements
Track Severe Weather on mobile